Pell Lake, Wisconsin
Current Conditions -  °F | °C
As of 10:55 AM on Sunday 23 Nov 2014 (Local Time) from KBUU Reporting Station
Moderate Rain Moderate Rain  
Wind Chill: 42°   Ceiling: 1500
Heat Index: 46°   Visibility: 5mi
Dew Point: 45°   Wind: 7mph
Humidity: 97%   Direction: 180°S
Pressure: 29.65"   Gusts: NA
Location:  42.54°N, 88.37°W
Report Text: KBUU 231655Z AUTO 18006KT 5SM RA SCT009 OVC015 08/07 A2965 RMK AO2 P0001 T00760072
Loading
Personal Weather Stations






























Interactive Weather Map New forecast layout! Learn more

10-Day Weather Forecast

Advertisements
Track Severe Weather on mobile